Kingsbury, Texas
Current Conditions -  °F | °C
As of 6:51 PM on Wednesday 22 Oct 2014 (Local Time) from KBAZ Reporting Station
Few Clouds Few Clouds  
Wind Chill: 80°   Ceiling: Unl
Heat Index: 80°   Visibility: 10mi
Dew Point: 55°   Wind: 8mph
Humidity: 42%   Direction: 100°E
Pressure: 30.03"   Gusts: NA
Location:  29.65°N, 97.83°W
Report Text: KBAZ 222351Z AUTO 10007KT 10SM FEW120 27/13 A3003 RMK AO2 SLP163 T02670128 10300 20267 53004
Loading
Personal Weather Stations






























Interactive Weather Map
Tropical Storm Tracking
New forecast layout! Learn more

10-Day Weather Forecast

Advertisements
Track Severe Weather on mobile